createdAt,value
2023-05-21T00:02:20.274Z,29.00
2023-05-21T00:04:47.606Z,23.52
2023-05-21T00:07:15.430Z,25.10
2023-05-21T00:09:42.190Z,25.70
2023-05-21T00:12:09.026Z,27.38
2023-05-21T00:14:35.831Z,26.48
2023-05-21T00:17:02.369Z,23.75
2023-05-21T00:19:28.950Z,27.80
2023-05-21T00:21:56.075Z,24.80
2023-05-21T00:24:22.748Z,27.67
2023-05-21T00:26:49.228Z,31.33
2023-05-21T00:29:15.720Z,24.70
2023-05-21T00:31:42.390Z,26.92
2023-05-21T00:34:09.054Z,23.38
2023-05-21T00:36:35.661Z,25.13
2023-05-21T00:39:02.507Z,27.60
2023-05-21T00:41:30.280Z,31.05
2023-05-21T00:43:57.276Z,34.55
2023-05-21T00:46:24.212Z,28.83
2023-05-21T00:48:51.134Z,29.02
2023-05-21T00:51:18.696Z,30.35
2023-05-21T00:53:46.029Z,35.58
2023-05-21T00:56:12.770Z,31.45
2023-05-21T00:58:39.838Z,40.55
2023-05-21T01:01:06.928Z,38.58
2023-05-21T01:03:38.505Z,29.98
2023-05-21T01:06:06.066Z,37.05
2023-05-21T01:08:34.652Z,32.65
2023-05-21T01:11:02.518Z,34.30
2023-05-21T01:13:29.519Z,32.63
2023-05-21T01:15:58.084Z,36.50
2023-05-21T01:18:24.918Z,33.17
2023-05-21T01:20:52.415Z,31.00
2023-05-21T01:23:19.493Z,31.25
2023-05-21T01:25:46.555Z,33.92
2023-05-21T01:28:13.391Z,31.80
2023-05-21T01:30:41.265Z,35.10
2023-05-21T01:33:13.094Z,35.45
2023-05-21T01:35:43.180Z,29.85
2023-05-21T01:38:09.804Z,37.90
2023-05-21T01:40:40.497Z,37.70
2023-05-21T01:43:08.283Z,32.00
2023-05-21T01:45:36.656Z,35.17
2023-05-21T01:48:03.568Z,34.67
2023-05-21T01:50:31.873Z,33.65
2023-05-21T01:52:58.648Z,39.80
2023-05-21T01:55:25.398Z,37.42
2023-05-21T01:57:53.466Z,37.33
2023-05-21T02:00:23.733Z,35.35
2023-05-21T02:02:50.624Z,35.65
2023-05-21T02:05:17.425Z,36.28
2023-05-21T02:07:45.287Z,38.47
2023-05-21T02:10:12.086Z,35.40
2023-05-21T02:12:38.553Z,31.35
2023-05-21T02:15:06.071Z,40.28
2023-05-21T02:17:34.250Z,34.88
2023-05-21T02:20:11.554Z,36.22
2023-05-21T02:22:42.414Z,37.85
2023-05-21T02:25:09.682Z,42.00
2023-05-21T02:27:37.691Z,39.00
2023-05-21T02:30:05.075Z,43.53
2023-05-21T02:32:32.353Z,35.13
2023-05-21T02:34:58.950Z,37.40
2023-05-21T02:37:27.640Z,40.42
2023-05-21T02:39:54.685Z,41.20
2023-05-21T02:42:24.028Z,46.35
2023-05-21T02:44:51.233Z,40.25
2023-05-21T02:47:20.754Z,40.38
2023-05-21T02:49:47.301Z,41.08
2023-05-21T02:52:14.262Z,43.50
2023-05-21T02:54:40.831Z,45.00
2023-05-21T02:57:07.389Z,43.38
2023-05-21T02:59:33.895Z,39.75
2023-05-21T03:02:00.448Z,40.05
2023-05-21T03:04:28.409Z,41.70
2023-05-21T03:06:55.377Z,42.17
2023-05-21T03:09:22.173Z,40.67
2023-05-21T03:11:49.008Z,38.50
2023-05-21T03:14:16.245Z,35.55
2023-05-21T03:16:43.845Z,41.28
2023-05-21T03:19:11.500Z,37.58
2023-05-21T03:21:38.121Z,44.15
2023-05-21T03:24:05.414Z,39.97
2023-05-21T03:26:32.106Z,45.38
2023-05-21T03:28:58.555Z,41.85
2023-05-21T03:31:25.492Z,40.60
2023-05-21T03:33:52.689Z,44.95
2023-05-21T03:36:19.708Z,39.97
2023-05-21T03:38:46.394Z,37.13
2023-05-21T03:41:13.174Z,39.28
2023-05-21T03:43:39.684Z,41.45
2023-05-21T03:46:06.231Z,43.70
2023-05-21T03:48:32.837Z,39.22
2023-05-21T03:50:59.409Z,41.92
2023-05-21T03:53:25.969Z,37.67
2023-05-21T03:55:55.323Z,41.20
2023-05-21T03:58:22.386Z,39.97
2023-05-21T04:00:49.055Z,46.20
2023-05-21T04:03:16.032Z,38.45
2023-05-21T04:05:42.813Z,44.08
2023-05-21T04:08:09.352Z,42.58
2023-05-21T04:10:36.030Z,41.45
2023-05-21T04:13:02.607Z,41.35
2023-05-21T04:15:29.190Z,43.85
2023-05-21T04:17:55.723Z,43.60
2023-05-21T04:20:22.439Z,42.20
2023-05-21T04:22:49.063Z,43.13
2023-05-21T04:25:15.594Z,41.00
2023-05-21T04:27:43.570Z,41.78
2023-05-21T04:30:11.193Z,42.72
2023-05-21T04:32:38.592Z,52.67
2023-05-21T04:35:05.377Z,40.88
2023-05-21T04:37:35.024Z,45.45
2023-05-21T04:40:02.531Z,42.05
2023-05-21T04:42:30.039Z,42.10
2023-05-21T04:44:59.524Z,45.42
2023-05-21T04:47:26.260Z,45.67
2023-05-21T04:49:53.474Z,42.78
2023-05-21T04:52:20.061Z,45.38
2023-05-21T04:54:47.829Z,47.80
2023-05-21T04:57:14.447Z,43.92
2023-05-21T04:59:41.594Z,42.75
2023-05-21T05:02:08.176Z,43.60
2023-05-21T05:04:34.726Z,41.45
2023-05-21T05:07:01.236Z,44.67
2023-05-21T05:09:28.131Z,42.25
2023-05-21T05:11:54.603Z,45.28
2023-05-21T05:14:21.254Z,44.40
2023-05-21T05:16:50.883Z,44.05
2023-05-21T05:19:17.585Z,46.08
2023-05-21T05:21:44.205Z,42.67
2023-05-21T05:24:10.783Z,42.00
2023-05-21T05:26:37.335Z,40.70
2023-05-21T05:29:03.870Z,49.33
2023-05-21T05:31:30.637Z,37.97
2023-05-21T05:33:57.572Z,36.03
2023-05-21T05:36:24.260Z,39.65
2023-05-21T05:38:50.795Z,40.33
2023-05-21T05:41:17.277Z,37.13
2023-05-21T05:43:43.764Z,34.50
2023-05-21T05:46:10.484Z,45.35
2023-05-21T05:48:37.122Z,41.60
2023-05-21T05:51:03.671Z,38.05
2023-05-21T05:53:30.139Z,37.17
2023-05-21T05:55:56.672Z,37.88
2023-05-21T05:58:23.234Z,42.17
2023-05-21T06:00:49.794Z,37.20
2023-05-21T06:03:16.425Z,39.97
2023-05-21T06:05:43.902Z,39.88
2023-05-21T06:08:10.692Z,34.08
2023-05-21T06:10:37.303Z,33.55
2023-05-21T06:13:03.786Z,42.47
2023-05-21T06:15:30.311Z,33.40
2023-05-21T06:17:56.856Z,33.63
2023-05-21T06:20:23.432Z,33.92
2023-05-21T06:22:49.940Z,33.22
2023-05-21T06:25:16.646Z,31.02
2023-05-21T06:27:43.175Z,33.78
2023-05-21T06:30:09.752Z,35.92
2023-05-21T06:32:36.340Z,32.90
2023-05-21T06:35:02.897Z,35.30
2023-05-21T06:37:29.403Z,30.77
2023-05-21T06:39:55.918Z,36.85
2023-05-21T06:42:22.463Z,34.92
2023-05-21T06:44:48.989Z,32.30
2023-05-21T06:47:15.572Z,39.72
2023-05-21T06:49:42.788Z,32.95
2023-05-21T06:52:09.333Z,35.95
2023-05-21T06:54:36.433Z,28.33
2023-05-21T06:57:03.074Z,30.63
2023-05-21T06:59:29.555Z,28.60
2023-05-21T07:01:56.986Z,30.42
2023-05-21T07:04:23.558Z,34.08
2023-05-21T07:06:50.032Z,32.47
2023-05-21T07:09:18.267Z,25.52
2023-05-21T07:11:44.789Z,29.70
2023-05-21T07:14:11.393Z,26.88
2023-05-21T07:16:37.872Z,27.50
2023-05-21T07:19:04.443Z,28.60
2023-05-21T07:21:30.975Z,27.15
2023-05-21T07:23:57.431Z,30.10
2023-05-21T07:26:24.039Z,26.92
2023-05-21T07:28:50.663Z,34.47
2023-05-21T07:31:17.724Z,25.67
2023-05-21T07:33:44.267Z,29.27
2023-05-21T07:36:10.787Z,31.08
2023-05-21T07:38:38.052Z,25.83
2023-05-21T07:41:04.522Z,24.90
2023-05-21T07:43:31.820Z,25.65
2023-05-21T07:45:58.330Z,23.20
2023-05-21T07:48:24.883Z,26.85
2023-05-21T07:50:52.780Z,21.85
2023-05-21T07:53:19.418Z,26.00
2023-05-21T07:55:48.017Z,23.90
2023-05-21T07:58:18.042Z,23.55
2023-05-21T08:00:46.967Z,23.50
2023-05-21T08:03:17.434Z,22.77
2023-05-21T08:05:48.407Z,21.20
2023-05-21T08:08:15.877Z,23.77
2023-05-21T08:10:47.887Z,21.10
2023-05-21T08:13:17.812Z,19.25
2023-05-21T08:15:44.342Z,23.48
2023-05-21T08:18:12.000Z,23.38
2023-05-21T08:20:38.626Z,20.02
2023-05-21T08:23:05.130Z,19.90
2023-05-21T08:25:31.766Z,18.25
2023-05-21T08:27:58.326Z,18.08
2023-05-21T08:30:26.488Z,19.92
2023-05-21T08:32:53.138Z,18.40
2023-05-21T08:35:19.669Z,18.30
2023-05-21T08:37:46.281Z,18.35
2023-05-21T08:40:13.291Z,19.77
2023-05-21T08:42:44.803Z,23.95
2023-05-21T08:45:12.041Z,20.08
2023-05-21T08:47:41.467Z,17.92
2023-05-21T08:50:09.435Z,19.88
2023-05-21T08:52:36.030Z,23.20
2023-05-21T08:55:06.018Z,18.08
2023-05-21T08:57:32.830Z,19.75
2023-05-21T08:59:59.553Z,17.67
2023-05-21T09:02:26.367Z,15.80
2023-05-21T09:04:57.298Z,21.45
2023-05-21T09:07:25.377Z,18.63
2023-05-21T09:09:55.555Z,16.45
2023-05-21T09:12:22.189Z,14.50
2023-05-21T09:14:49.567Z,17.13
2023-05-21T09:17:17.020Z,17.50
2023-05-21T09:20:02.211Z,20.30
2023-05-21T09:22:28.786Z,16.95
2023-05-21T09:24:55.349Z,18.30
2023-05-21T09:27:24.477Z,16.88
2023-05-21T09:29:51.040Z,13.32
2023-05-21T09:32:18.833Z,11.80
2023-05-21T09:34:47.348Z,14.27
2023-05-21T09:37:26.661Z,16.13
2023-05-21T09:39:54.575Z,19.67
2023-05-21T09:42:21.960Z,16.45
2023-05-21T09:44:48.573Z,12.20
2023-05-21T09:47:19.576Z,14.30
2023-05-21T09:49:46.235Z,14.02
2023-05-21T09:52:12.981Z,16.52
2023-05-21T09:54:40.712Z,16.65
2023-05-21T09:57:07.357Z,19.27
2023-05-21T09:59:38.184Z,15.82
2023-05-21T10:02:23.172Z,13.18
2023-05-21T10:04:50.729Z,17.05
2023-05-21T10:07:19.040Z,16.08
2023-05-21T10:09:48.726Z,15.00
2023-05-21T10:12:17.955Z,13.38
2023-05-21T10:14:47.033Z,14.52
2023-05-21T10:17:14.725Z,15.50
2023-05-21T10:19:46.627Z,17.63
2023-05-21T10:22:13.922Z,15.20
2023-05-21T10:24:41.217Z,11.43
2023-05-21T10:27:08.010Z,13.13
2023-05-21T10:29:35.159Z,12.73
2023-05-21T10:32:02.174Z,11.98
2023-05-21T10:34:31.072Z,14.70
2023-05-21T10:36:58.399Z,13.18
2023-05-21T10:39:25.623Z,14.73
2023-05-21T10:42:00.606Z,13.20
2023-05-21T10:44:29.932Z,16.30
2023-05-21T10:47:05.378Z,17.63
2023-05-21T10:49:41.800Z,10.73
2023-05-21T10:52:29.276Z,13.77
2023-05-21T10:54:56.052Z,10.77
2023-05-21T10:57:45.017Z,12.57
2023-05-21T11:00:13.188Z,13.60
2023-05-21T11:02:39.998Z,13.02
2023-05-21T11:05:07.078Z,14.88
2023-05-21T11:07:56.425Z,14.85
2023-05-21T11:10:49.980Z,11.88
2023-05-21T11:13:19.762Z,10.00
2023-05-21T11:15:58.157Z,12.88
2023-05-21T11:18:31.284Z,12.35
2023-05-21T11:21:11.978Z,11.90
2023-05-21T11:23:51.955Z,14.20
2023-05-21T11:26:22.694Z,12.50
2023-05-21T11:29:04.645Z,14.63
2023-05-21T11:31:41.633Z,13.80
2023-05-21T11:34:08.917Z,15.30
2023-05-21T11:36:37.423Z,11.85
2023-05-21T11:39:11.767Z,13.80
2023-05-21T11:41:57.024Z,14.25
2023-05-21T11:44:41.734Z,16.85
2023-05-21T11:47:09.445Z,9.77
2023-05-21T11:49:36.946Z,13.63
2023-05-21T11:52:04.112Z,15.65
2023-05-21T11:54:35.961Z,13.43
2023-05-21T11:57:03.217Z,14.43
2023-05-21T11:59:29.775Z,11.27
2023-05-21T12:01:57.279Z,13.88
2023-05-21T12:04:23.873Z,15.15
2023-05-21T12:06:50.772Z,14.55
2023-05-21T12:09:17.460Z,15.18
2023-05-21T12:11:44.177Z,12.73
2023-05-21T12:14:11.374Z,12.40
2023-05-21T12:16:39.482Z,13.10
2023-05-21T12:19:06.440Z,17.38
2023-05-21T12:21:33.285Z,19.50
2023-05-21T12:23:59.894Z,15.38
2023-05-21T12:26:26.647Z,15.38
2023-05-21T12:28:56.293Z,10.75
2023-05-21T12:31:23.302Z,14.65
2023-05-21T12:33:50.751Z,11.63
2023-05-21T12:36:26.158Z,11.80
2023-05-21T12:38:53.048Z,14.43
2023-05-21T12:41:20.177Z,11.25
2023-05-21T12:43:46.982Z,14.90
2023-05-21T12:46:14.922Z,13.23
2023-05-21T12:48:42.739Z,13.45
2023-05-21T12:51:09.413Z,12.70
2023-05-21T12:53:36.659Z,12.70
2023-05-21T12:56:10.436Z,14.10
2023-05-21T12:58:38.436Z,13.60
2023-05-21T13:01:08.073Z,14.43
2023-05-21T13:03:35.398Z,15.90
2023-05-21T13:06:02.668Z,11.93
2023-05-21T13:08:29.639Z,13.40
2023-05-21T13:10:56.367Z,14.60
2023-05-21T13:13:24.362Z,18.92
2023-05-21T13:15:51.137Z,16.52
2023-05-21T13:18:17.980Z,17.05
2023-05-21T13:20:44.743Z,18.50
2023-05-21T13:23:12.052Z,13.23
2023-05-21T13:25:38.795Z,16.58
2023-05-21T13:28:05.994Z,11.52
2023-05-21T13:30:36.532Z,12.98
2023-05-21T13:33:03.668Z,15.07
2023-05-21T13:35:34.592Z,15.57
2023-05-21T13:38:01.725Z,19.70
2023-05-21T13:40:28.429Z,15.85
2023-05-21T13:42:54.964Z,13.18
2023-05-21T13:45:21.709Z,15.35
2023-05-21T13:47:50.105Z,14.02
2023-05-21T13:50:18.564Z,13.48
2023-05-21T13:52:45.985Z,13.45
2023-05-21T13:55:12.918Z,15.30
2023-05-21T13:57:40.697Z,13.75
2023-05-21T14:00:09.264Z,12.75
2023-05-21T14:02:36.182Z,12.57
2023-05-21T14:05:02.793Z,12.43
2023-05-21T14:07:32.704Z,13.98
2023-05-21T14:10:00.562Z,12.70
2023-05-21T14:12:27.142Z,12.57
2023-05-21T14:14:55.043Z,10.32
2023-05-21T14:17:22.396Z,13.05
2023-05-21T14:19:49.019Z,13.70
2023-05-21T14:22:15.646Z,8.27
2023-05-21T14:24:42.635Z,14.27
2023-05-21T14:27:09.269Z,13.98
2023-05-21T14:29:35.830Z,16.20
2023-05-21T14:32:02.439Z,12.55
2023-05-21T14:34:29.144Z,10.05
2023-05-21T14:36:55.686Z,13.85
2023-05-21T14:39:22.371Z,11.48
2023-05-21T14:41:48.870Z,13.80
2023-05-21T14:44:15.537Z,11.77
2023-05-21T14:46:43.570Z,11.20
2023-05-21T14:49:11.885Z,9.77
2023-05-21T14:51:38.365Z,14.20
2023-05-21T14:54:04.914Z,11.02
2023-05-21T14:56:34.939Z,12.40
2023-05-21T14:59:01.617Z,13.52
2023-05-21T15:01:28.597Z,15.35
2023-05-21T15:03:56.891Z,13.32
2023-05-21T15:06:23.758Z,22.20
2023-05-21T15:08:53.753Z,13.52
2023-05-21T15:11:21.489Z,10.93
2023-05-21T15:13:48.177Z,11.25
2023-05-21T15:16:15.689Z,11.05
2023-05-21T15:18:43.989Z,14.52
2023-05-21T15:21:10.969Z,11.52
2023-05-21T15:23:38.812Z,15.52
2023-05-21T15:26:05.450Z,13.07
2023-05-21T15:28:32.020Z,12.20
2023-05-21T15:30:58.618Z,11.10
2023-05-21T15:33:25.377Z,13.40
2023-05-21T15:35:53.261Z,14.70
2023-05-21T15:38:19.911Z,9.80
2023-05-21T15:40:47.975Z,12.35
2023-05-21T15:43:14.700Z,10.75
2023-05-21T15:45:41.980Z,13.10
2023-05-21T15:48:08.891Z,16.02
2023-05-21T15:50:35.932Z,21.25
2023-05-21T15:53:03.508Z,13.18
2023-05-21T15:55:33.634Z,13.88
2023-05-21T15:58:02.400Z,11.65
2023-05-21T16:00:29.439Z,10.45
2023-05-21T16:02:56.048Z,12.90
2023-05-21T16:05:22.702Z,11.82
2023-05-21T16:07:49.890Z,14.18
2023-05-21T16:10:16.586Z,12.23
2023-05-21T16:12:43.595Z,15.27
2023-05-21T16:15:11.049Z,13.50
2023-05-21T16:17:37.712Z,10.38
2023-05-21T16:20:06.503Z,15.38
2023-05-21T16:22:33.065Z,11.20
2023-05-21T16:24:59.643Z,13.13
2023-05-21T16:27:26.541Z,15.73
2023-05-21T16:29:53.039Z,13.57
2023-05-21T16:32:19.689Z,13.85
2023-05-21T16:34:46.407Z,13.60
2023-05-21T16:37:12.986Z,12.20
2023-05-21T16:39:39.533Z,16.17
2023-05-21T16:42:06.165Z,12.80
2023-05-21T16:44:32.798Z,13.48
2023-05-21T16:46:59.746Z,11.32
2023-05-21T16:49:26.921Z,13.27
2023-05-21T16:51:53.659Z,14.00
2023-05-21T16:54:21.022Z,14.63
2023-05-21T16:56:47.597Z,12.52
2023-05-21T16:59:14.296Z,13.18
2023-05-21T17:01:40.988Z,15.98
2023-05-21T17:04:07.766Z,16.25
2023-05-21T17:06:34.927Z,16.65
2023-05-21T17:09:02.490Z,14.88
2023-05-21T17:11:30.599Z,13.85
2023-05-21T17:13:57.244Z,12.90
2023-05-21T17:16:25.655Z,14.23
2023-05-21T17:18:52.500Z,14.77
2023-05-21T17:21:19.560Z,13.65
2023-05-21T17:23:47.980Z,16.33
2023-05-21T17:26:14.694Z,24.77
2023-05-21T17:28:41.350Z,15.98
2023-05-21T17:31:08.642Z,13.80
2023-05-21T17:33:36.314Z,15.13
2023-05-21T17:36:03.541Z,17.88
2023-05-21T17:38:30.388Z,16.02
2023-05-21T17:40:58.870Z,15.52
2023-05-21T17:43:27.740Z,12.73
2023-05-21T17:45:56.628Z,22.10
2023-05-21T17:48:24.413Z,17.75
2023-05-21T17:50:52.296Z,16.80
2023-05-21T17:53:18.992Z,20.25
2023-05-21T17:55:45.834Z,18.15
2023-05-21T17:58:12.383Z,20.35
2023-05-21T18:00:40.343Z,19.13
2023-05-21T18:03:09.841Z,17.60
2023-05-21T18:05:36.793Z,15.38
2023-05-21T18:08:04.714Z,18.67
2023-05-21T18:10:31.258Z,16.05
2023-05-21T18:12:57.874Z,14.07
2023-05-21T18:15:24.735Z,19.27
2023-05-21T18:17:51.235Z,18.05
2023-05-21T18:20:17.912Z,18.20
2023-05-21T18:22:44.980Z,18.85
2023-05-21T18:25:11.591Z,15.65
2023-05-21T18:27:38.189Z,21.67
2023-05-21T18:30:06.458Z,18.42
2023-05-21T18:32:33.901Z,14.85
2023-05-21T18:35:00.553Z,16.48
2023-05-21T18:37:29.185Z,20.08
2023-05-21T18:39:55.863Z,17.50
2023-05-21T18:42:22.404Z,20.98
2023-05-21T18:44:50.909Z,18.27
2023-05-21T18:47:17.528Z,18.77
2023-05-21T18:49:44.105Z,20.52
2023-05-21T18:52:11.418Z,18.55
2023-05-21T18:54:39.223Z,15.85
2023-05-21T18:57:05.961Z,13.15
2023-05-21T18:59:32.731Z,15.07
2023-05-21T19:02:01.565Z,18.27
2023-05-21T19:04:28.671Z,19.48
2023-05-21T19:06:55.275Z,19.25
2023-05-21T19:09:21.819Z,15.85
2023-05-21T19:11:50.643Z,12.63
2023-05-21T19:14:20.311Z,12.90
2023-05-21T19:17:05.441Z,19.23
2023-05-21T19:20:01.292Z,13.98
2023-05-21T19:37:13.121Z,13.52
2023-05-21T19:39:59.915Z,15.88
2023-05-21T19:42:46.770Z,16.75
2023-05-21T19:45:33.619Z,15.18
2023-05-21T19:48:20.471Z,17.05
2023-05-21T19:51:07.275Z,15.98
2023-05-21T19:53:54.090Z,14.25
2023-05-21T19:56:39.734Z,13.90
2023-05-21T19:59:06.241Z,11.45
2023-05-21T20:01:35.571Z,14.93
2023-05-21T20:04:02.392Z,17.90
2023-05-21T20:06:29.413Z,14.52
2023-05-21T20:08:58.381Z,16.77
2023-05-21T20:11:26.689Z,13.30
2023-05-21T20:13:53.383Z,18.77
2023-05-21T20:16:20.448Z,16.52
2023-05-21T20:18:47.436Z,17.70
2023-05-21T20:21:19.130Z,12.57
2023-05-21T20:23:45.852Z,16.10
2023-05-21T20:26:14.355Z,14.75
2023-05-21T20:28:42.982Z,15.63
2023-05-21T20:31:09.710Z,11.80
2023-05-21T20:33:43.130Z,12.10
2023-05-21T20:36:09.796Z,13.77
2023-05-21T20:38:38.058Z,13.57
2023-05-21T20:41:04.931Z,14.63
2023-05-21T20:43:31.520Z,10.90
2023-05-21T20:46:01.691Z,12.57
2023-05-21T20:48:29.806Z,14.35
2023-05-21T20:50:57.498Z,12.50
2023-05-21T20:53:25.114Z,13.05
2023-05-21T20:55:54.749Z,17.85
2023-05-21T20:58:25.519Z,15.23
2023-05-21T21:00:52.209Z,15.85
2023-05-21T21:03:21.635Z,11.95
2023-05-21T21:05:48.555Z,13.10
2023-05-21T21:08:16.191Z,12.93
2023-05-21T21:10:46.657Z,13.07
2023-05-21T21:13:13.789Z,13.40
2023-05-21T21:15:41.023Z,14.98
2023-05-21T21:18:07.721Z,18.75
2023-05-21T21:20:34.408Z,16.10
2023-05-21T21:23:00.989Z,14.20
2023-05-21T21:25:27.482Z,14.77
2023-05-21T21:27:54.178Z,10.48
2023-05-21T21:30:20.848Z,12.30
2023-05-21T21:32:49.455Z,13.15
2023-05-21T21:35:16.296Z,13.85
2023-05-21T21:37:42.964Z,15.68
2023-05-21T21:40:09.734Z,14.73
2023-05-21T21:42:36.650Z,14.25
2023-05-21T21:45:03.759Z,13.23
2023-05-21T21:47:30.313Z,16.38
2023-05-21T21:49:57.040Z,15.40
2023-05-21T21:52:27.437Z,16.98
2023-05-21T21:54:57.584Z,11.90
2023-05-21T21:57:27.621Z,14.20
2023-05-21T21:59:54.271Z,14.90
2023-05-21T22:02:20.842Z,12.65
2023-05-21T22:04:48.083Z,16.20
2023-05-21T22:07:17.750Z,14.02
2023-05-21T22:09:47.210Z,14.15
2023-05-21T22:12:13.745Z,13.85
2023-05-21T22:14:40.352Z,14.65
2023-05-21T22:17:09.154Z,14.35
2023-05-21T22:19:36.577Z,19.38
2023-05-21T22:22:04.546Z,16.65
2023-05-21T22:24:33.347Z,18.80
2023-05-21T22:27:00.516Z,15.38
2023-05-21T22:29:27.567Z,14.63
2023-05-21T22:31:54.208Z,13.65
2023-05-21T22:34:20.832Z,14.13
2023-05-21T22:36:47.378Z,15.00
2023-05-21T22:39:14.183Z,13.23
2023-05-21T22:41:40.734Z,19.45
2023-05-21T22:44:07.311Z,18.60
2023-05-21T22:46:35.541Z,15.15
2023-05-21T22:49:02.377Z,17.98
2023-05-21T22:51:34.741Z,15.73
2023-05-21T22:54:01.852Z,14.07
2023-05-21T22:56:29.043Z,17.50
2023-05-21T22:58:56.678Z,21.95
2023-05-21T23:01:24.417Z,11.77
2023-05-21T23:03:51.388Z,17.83
2023-05-21T23:06:17.854Z,18.02
2023-05-21T23:08:44.739Z,15.75
2023-05-21T23:11:11.224Z,22.05
2023-05-21T23:13:37.798Z,21.42
2023-05-21T23:16:04.437Z,18.75
2023-05-21T23:18:31.057Z,19.27
2023-05-21T23:20:57.586Z,14.98
2023-05-21T23:23:24.161Z,15.57
2023-05-21T23:25:53.085Z,15.73
2023-05-21T23:28:19.527Z,20.42
2023-05-21T23:33:25.418Z,14.77
2023-05-21T23:35:52.051Z,19.33
2023-05-21T23:38:18.558Z,18.40
2023-05-21T23:40:45.109Z,20.33
2023-05-21T23:43:12.430Z,18.75
2023-05-21T23:45:38.975Z,18.13
2023-05-21T23:48:05.743Z,17.90
2023-05-21T23:50:32.393Z,18.35
2023-05-21T23:53:00.146Z,25.05
2023-05-21T23:55:26.700Z,15.93
2023-05-21T23:57:53.175Z,18.85
